createdAt,value
2022-10-08T00:01:14.808Z,14.60
2022-10-08T00:03:44.512Z,14.60
2022-10-08T00:06:13.646Z,14.60
2022-10-08T00:08:42.868Z,14.60
2022-10-08T00:11:12.134Z,14.60
2022-10-08T00:13:41.298Z,14.60
2022-10-08T00:16:31.874Z,14.60
2022-10-08T00:19:01.994Z,14.60
2022-10-08T00:21:34.530Z,14.50
2022-10-08T00:24:02.673Z,14.50
2022-10-08T00:26:31.945Z,14.50
2022-10-08T00:29:01.832Z,14.50
2022-10-08T00:31:34.863Z,14.50
2022-10-08T00:34:05.923Z,14.50
2022-10-08T00:36:34.691Z,14.50
2022-10-08T00:39:13.581Z,14.50
2022-10-08T00:41:40.873Z,14.50
2022-10-08T00:45:02.025Z,14.40
2022-10-08T00:47:45.453Z,14.40
2022-10-08T00:50:33.252Z,14.40
2022-10-08T00:53:07.814Z,14.40
2022-10-08T00:55:43.172Z,14.30
2022-10-08T00:58:17.767Z,14.30
2022-10-08T01:00:44.708Z,14.40
2022-10-08T01:03:11.899Z,14.30
2022-10-08T01:05:44.542Z,14.30
2022-10-08T01:08:28.517Z,14.30
2022-10-08T01:11:09.964Z,14.30
2022-10-08T01:13:43.635Z,14.30
2022-10-08T01:16:22.912Z,14.40
2022-10-08T01:19:16.848Z,14.40
2022-10-08T01:22:27.571Z,14.40
2022-10-08T01:25:20.762Z,14.50
2022-10-08T01:27:54.141Z,14.50
2022-10-08T01:30:21.293Z,14.50
2022-10-08T01:32:51.319Z,14.50
2022-10-08T01:35:26.505Z,14.50
2022-10-08T01:37:56.042Z,14.50
2022-10-08T01:40:31.038Z,14.40
2022-10-08T01:43:00.941Z,14.40
2022-10-08T01:45:35.911Z,14.40
2022-10-08T01:48:09.189Z,14.40
2022-10-08T01:50:44.281Z,14.40
2022-10-08T01:53:15.903Z,14.40
2022-10-08T01:55:49.375Z,14.40
2022-10-08T01:58:23.817Z,14.40
2022-10-08T02:00:54.211Z,14.30
2022-10-08T02:03:21.062Z,14.30
2022-10-08T02:05:52.140Z,14.30
2022-10-08T02:08:19.076Z,14.30
2022-10-08T02:10:45.883Z,14.30
2022-10-08T02:13:12.824Z,14.30
2022-10-08T02:15:59.900Z,14.30
2022-10-08T02:18:51.859Z,14.30
2022-10-08T02:21:25.001Z,14.30
2022-10-08T02:24:16.557Z,14.40
2022-10-08T02:26:48.972Z,14.40
2022-10-08T02:29:29.083Z,14.40
2022-10-08T02:32:30.092Z,14.40
2022-10-08T02:35:07.345Z,14.40
2022-10-08T02:38:03.253Z,14.30
2022-10-08T02:40:32.837Z,14.30
2022-10-08T02:43:05.536Z,14.30
2022-10-08T02:45:37.962Z,14.30
2022-10-08T02:48:11.873Z,14.30
2022-10-08T02:50:43.344Z,14.30
2022-10-08T02:53:14.570Z,14.30
2022-10-08T02:56:03.293Z,14.30
2022-10-08T02:58:31.547Z,14.20
2022-10-08T03:01:15.100Z,14.20
2022-10-08T03:03:52.094Z,14.20
2022-10-08T03:06:19.487Z,14.20
2022-10-08T03:08:51.491Z,14.10
2022-10-08T03:11:18.492Z,14.10
2022-10-08T03:13:48.349Z,14.10
2022-10-08T03:16:19.649Z,14.10
2022-10-08T03:18:47.145Z,14.10
2022-10-08T03:21:15.072Z,14.10
2022-10-08T03:23:42.424Z,14.10
2022-10-08T03:26:09.212Z,14.10
2022-10-08T03:28:36.221Z,14.10
2022-10-08T03:31:07.101Z,14.10
2022-10-08T03:33:34.348Z,14.10
2022-10-08T03:36:01.348Z,14.10
2022-10-08T03:38:28.356Z,14.10
2022-10-08T03:40:57.419Z,14.10
2022-10-08T03:43:24.900Z,14.10
2022-10-08T03:45:55.080Z,14.10
2022-10-08T03:48:23.035Z,14.10
2022-10-08T03:50:51.650Z,14.10
2022-10-08T03:53:18.588Z,14.20
2022-10-08T03:55:45.455Z,14.20
2022-10-08T03:58:12.636Z,14.20
2022-10-08T04:00:39.848Z,14.20
2022-10-08T04:03:06.701Z,14.20
2022-10-08T04:05:33.585Z,14.30
2022-10-08T04:08:00.386Z,14.20
2022-10-08T04:10:27.650Z,14.30
2022-10-08T04:12:54.452Z,14.30
2022-10-08T04:15:21.225Z,14.30
2022-10-08T04:17:48.063Z,14.30
2022-10-08T04:20:14.913Z,14.40
2022-10-08T04:22:41.729Z,14.40
2022-10-08T04:25:08.541Z,14.40
2022-10-08T04:27:35.387Z,14.40
2022-10-08T04:30:02.179Z,14.40
2022-10-08T04:32:28.952Z,14.50
2022-10-08T04:34:55.777Z,14.50
2022-10-08T04:37:22.709Z,14.50
2022-10-08T04:39:49.556Z,14.50
2022-10-08T04:42:16.339Z,14.50
2022-10-08T04:44:43.132Z,14.60
2022-10-08T04:47:09.906Z,14.60
2022-10-08T04:49:36.727Z,14.60
2022-10-08T04:52:03.669Z,14.60
2022-10-08T04:54:30.451Z,14.70
2022-10-08T04:56:57.236Z,14.70
2022-10-08T04:59:24.023Z,14.70
2022-10-08T05:01:52.790Z,14.70
2022-10-08T05:04:19.668Z,14.70
2022-10-08T05:06:46.430Z,14.70
2022-10-08T05:09:13.271Z,14.70
2022-10-08T05:11:40.431Z,14.70
2022-10-08T05:14:07.569Z,14.80
2022-10-08T05:16:34.440Z,14.80
2022-10-08T05:19:01.193Z,14.80
2022-10-08T05:21:29.971Z,14.80
2022-10-08T05:24:06.727Z,14.80
2022-10-08T05:26:56.810Z,14.90
2022-10-08T05:29:23.674Z,14.90
2022-10-08T05:31:50.535Z,14.90
2022-10-08T05:34:17.314Z,14.90
2022-10-08T05:36:44.118Z,15.00
2022-10-08T05:39:11.204Z,15.00
2022-10-08T05:41:38.668Z,15.00
2022-10-08T05:44:07.403Z,15.00
2022-10-08T05:46:36.147Z,15.00
2022-10-08T05:49:05.888Z,14.90
2022-10-08T05:51:33.107Z,14.90
2022-10-08T05:54:00.868Z,14.90
2022-10-08T05:56:28.981Z,14.90
2022-10-08T05:58:55.772Z,14.90
2022-10-08T06:01:28.928Z,14.90
2022-10-08T06:04:07.008Z,14.90
2022-10-08T06:06:40.244Z,14.90
2022-10-08T06:09:08.522Z,14.90
2022-10-08T06:11:36.926Z,14.90
2022-10-08T06:14:06.448Z,15.00
2022-10-08T06:16:34.440Z,15.00
2022-10-08T06:19:03.264Z,15.00
2022-10-08T06:21:30.966Z,15.10
2022-10-08T06:23:59.958Z,15.10
2022-10-08T06:26:36.824Z,15.20
2022-10-08T06:29:15.233Z,15.30
2022-10-08T06:31:42.500Z,15.40
2022-10-08T06:34:09.357Z,15.50
2022-10-08T06:36:39.533Z,15.50
2022-10-08T06:39:09.794Z,15.60
2022-10-08T06:41:36.841Z,15.70
2022-10-08T06:44:05.930Z,15.70
2022-10-08T06:46:33.956Z,15.80
2022-10-08T06:49:01.765Z,15.80
2022-10-08T06:51:28.898Z,15.90
2022-10-08T06:54:00.356Z,16.00
2022-10-08T06:56:29.914Z,16.10
2022-10-08T06:58:56.790Z,16.20
2022-10-08T07:01:30.456Z,16.20
2022-10-08T07:04:00.825Z,16.30
2022-10-08T07:06:28.107Z,16.30
2022-10-08T07:08:57.437Z,16.40
2022-10-08T07:11:25.254Z,16.40
2022-10-08T07:13:53.706Z,16.40
2022-10-08T07:16:22.847Z,16.40
2022-10-08T07:18:51.529Z,16.50
2022-10-08T07:21:21.242Z,16.50
2022-10-08T07:23:48.590Z,16.60
2022-10-08T07:26:17.624Z,16.70
2022-10-08T07:28:50.437Z,16.80
2022-10-08T07:31:20.956Z,16.80
2022-10-08T07:33:48.205Z,16.90
2022-10-08T07:36:25.190Z,16.90
2022-10-08T07:39:00.087Z,17.00
2022-10-08T07:41:28.082Z,17.00
2022-10-08T07:43:59.941Z,17.10
2022-10-08T07:46:32.127Z,17.10
2022-10-08T07:48:59.415Z,17.10
2022-10-08T07:51:27.660Z,17.20
2022-10-08T07:53:58.810Z,17.30
2022-10-08T07:56:28.369Z,17.30
2022-10-08T07:58:55.256Z,17.30
2022-10-08T08:01:28.495Z,17.40
2022-10-08T08:03:59.488Z,17.40
2022-10-08T08:06:26.745Z,17.50
2022-10-08T08:08:53.883Z,17.50
2022-10-08T08:11:23.447Z,17.60
2022-10-08T08:13:50.570Z,17.70
2022-10-08T08:16:25.436Z,17.70
2022-10-08T08:18:54.840Z,17.80
2022-10-08T08:21:27.756Z,17.80
2022-10-08T08:23:56.699Z,17.80
2022-10-08T08:26:27.127Z,17.90
2022-10-08T08:28:56.299Z,18.00
2022-10-08T08:31:29.187Z,18.00
2022-10-08T08:34:05.924Z,18.00
2022-10-08T08:36:35.735Z,18.10
2022-10-08T08:39:03.562Z,18.10
2022-10-08T08:41:48.011Z,18.10
2022-10-08T08:44:25.207Z,18.20
2022-10-08T08:46:59.077Z,18.20
2022-10-08T08:49:31.798Z,18.30
2022-10-08T08:52:01.355Z,18.30
2022-10-08T08:54:28.942Z,18.40
2022-10-08T08:56:55.883Z,18.40
2022-10-08T08:59:33.851Z,18.30
2022-10-08T09:02:06.290Z,18.30
2022-10-08T09:04:33.046Z,18.40
2022-10-08T09:07:02.126Z,18.40
2022-10-08T09:09:44.952Z,18.40
2022-10-08T09:12:31.189Z,18.40
2022-10-08T09:15:01.371Z,18.50
2022-10-08T09:17:34.307Z,18.50
2022-10-08T09:20:01.644Z,18.60
2022-10-08T09:22:31.875Z,18.60
2022-10-08T09:25:02.958Z,18.60
2022-10-08T09:27:51.470Z,18.60
2022-10-08T09:30:24.246Z,18.60
2022-10-08T09:32:55.236Z,18.60
2022-10-08T09:35:22.784Z,18.70
2022-10-08T09:37:51.269Z,18.80
2022-10-08T09:40:24.175Z,18.80
2022-10-08T09:43:17.359Z,18.90
2022-10-08T09:45:46.847Z,18.90
2022-10-08T09:48:23.733Z,18.90
2022-10-08T09:50:52.937Z,18.90
2022-10-08T09:53:21.120Z,18.90
2022-10-08T09:55:55.942Z,18.90
2022-10-08T09:58:23.278Z,18.90
2022-10-08T10:00:59.970Z,19.00
2022-10-08T10:03:27.678Z,19.00
2022-10-08T10:05:56.831Z,19.00
2022-10-08T10:08:43.289Z,19.00
2022-10-08T10:11:19.341Z,19.10
2022-10-08T10:13:49.736Z,19.20
2022-10-08T10:16:22.743Z,19.20
2022-10-08T10:19:15.785Z,19.30
2022-10-08T10:21:59.961Z,19.40
2022-10-08T10:24:56.760Z,19.40
2022-10-08T10:27:32.256Z,19.50
2022-10-08T10:30:04.947Z,19.60
2022-10-08T10:32:39.943Z,19.70
2022-10-08T10:35:17.336Z,19.80
2022-10-08T10:38:01.108Z,19.90
2022-10-08T10:40:32.652Z,19.90
2022-10-08T10:43:20.587Z,20.00
2022-10-08T10:45:53.965Z,20.10
2022-10-08T10:48:20.824Z,20.10
2022-10-08T10:51:00.329Z,20.10
2022-10-08T10:54:19.528Z,20.10
2022-10-08T10:57:00.924Z,20.20
2022-10-08T10:59:31.040Z,20.30
2022-10-08T11:02:16.133Z,20.40
2022-10-08T11:05:02.059Z,20.40
2022-10-08T11:07:31.935Z,20.40
2022-10-08T11:10:03.818Z,20.40
2022-10-08T11:12:56.649Z,20.40
2022-10-08T11:15:44.827Z,20.40
2022-10-08T11:18:17.342Z,20.40
2022-10-08T11:21:00.093Z,20.30
2022-10-08T11:23:53.015Z,20.30
2022-10-08T11:26:37.739Z,20.30
2022-10-08T11:29:19.819Z,20.20
2022-10-08T11:31:49.939Z,20.30
2022-10-08T11:34:33.223Z,20.30
2022-10-08T11:37:36.305Z,20.20
2022-10-08T11:40:18.142Z,20.20
2022-10-08T11:43:34.006Z,20.20
2022-10-08T11:46:29.803Z,20.20
2022-10-08T11:49:12.019Z,20.10
2022-10-08T11:51:43.863Z,20.10
2022-10-08T11:54:15.482Z,20.10
2022-10-08T11:56:44.554Z,20.10
2022-10-08T11:59:32.754Z,20.20
2022-10-08T12:02:03.893Z,20.30
2022-10-08T12:04:35.829Z,20.30
2022-10-08T12:07:34.339Z,20.30
2022-10-08T12:10:07.088Z,20.30
2022-10-08T12:13:26.159Z,20.30
2022-10-08T12:15:54.942Z,20.30
2022-10-08T12:18:26.531Z,20.30
2022-10-08T12:21:28.917Z,20.30
2022-10-08T12:23:55.750Z,20.30
2022-10-08T12:26:22.631Z,20.30
2022-10-08T12:28:50.829Z,20.30
2022-10-08T12:31:28.345Z,20.30
2022-10-08T12:34:17.785Z,20.30
2022-10-08T12:36:56.903Z,20.40
2022-10-08T12:39:43.310Z,20.40
2022-10-08T12:42:20.955Z,20.40
2022-10-08T12:44:53.689Z,20.40
2022-10-08T12:47:43.663Z,20.40
2022-10-08T12:50:16.041Z,20.40
2022-10-08T12:52:42.925Z,20.40
2022-10-08T12:55:17.638Z,20.30
2022-10-08T12:57:47.195Z,20.30
2022-10-08T13:00:22.394Z,20.30
2022-10-08T13:03:13.106Z,20.30
2022-10-08T13:05:41.750Z,20.30
2022-10-08T13:08:32.893Z,20.30
2022-10-08T13:11:02.880Z,20.30
2022-10-08T13:13:38.235Z,20.30
2022-10-08T13:16:20.259Z,20.30
2022-10-08T13:18:53.573Z,20.30
2022-10-08T13:21:32.336Z,20.30
2022-10-08T13:24:00.887Z,20.40
2022-10-08T13:26:50.724Z,20.40
2022-10-08T13:29:27.862Z,20.40
2022-10-08T13:32:02.686Z,20.40
2022-10-08T13:34:44.881Z,20.40
2022-10-08T13:37:26.772Z,20.50
2022-10-08T13:40:18.257Z,20.40
2022-10-08T13:42:52.221Z,20.40
2022-10-08T13:45:24.239Z,20.40
2022-10-08T13:47:52.025Z,20.40
2022-10-08T13:50:19.691Z,20.40
2022-10-08T13:52:53.697Z,20.40
2022-10-08T13:55:22.800Z,20.40
2022-10-08T13:57:50.049Z,20.50
2022-10-08T14:00:17.704Z,20.50
2022-10-08T14:02:44.656Z,20.50
2022-10-08T14:05:11.461Z,20.50
2022-10-08T14:07:38.685Z,20.50
2022-10-08T14:10:06.133Z,20.50
2022-10-08T14:12:34.990Z,20.50
2022-10-08T14:15:01.769Z,20.60
2022-10-08T14:17:28.935Z,20.60
2022-10-08T14:19:55.847Z,20.60
2022-10-08T14:22:23.016Z,20.60
2022-10-08T14:24:49.856Z,20.60
2022-10-08T14:27:16.645Z,20.60
2022-10-08T14:29:43.458Z,20.70
2022-10-08T14:32:12.026Z,20.60
2022-10-08T14:34:39.337Z,20.60
2022-10-08T14:37:06.871Z,20.60
2022-10-08T14:39:33.983Z,20.60
2022-10-08T14:42:00.754Z,20.60
2022-10-08T14:44:27.522Z,20.60
2022-10-08T14:46:54.583Z,20.50
2022-10-08T14:49:22.266Z,20.50
2022-10-08T14:51:49.064Z,20.50
2022-10-08T14:54:15.866Z,20.50
2022-10-08T14:56:45.569Z,20.50
2022-10-08T14:59:12.453Z,20.50
2022-10-08T15:01:39.729Z,20.50
2022-10-08T15:04:07.627Z,20.40
2022-10-08T15:06:34.612Z,20.40
2022-10-08T15:09:01.423Z,20.40
2022-10-08T15:11:28.247Z,20.40
2022-10-08T15:13:55.575Z,20.40
2022-10-08T15:16:22.728Z,20.40
2022-10-08T15:18:49.573Z,20.40
2022-10-08T15:21:16.409Z,20.40
2022-10-08T15:23:43.201Z,20.40
2022-10-08T15:26:14.865Z,20.30
2022-10-08T15:28:42.958Z,20.30
2022-10-08T15:31:15.121Z,20.20
2022-10-08T15:33:44.073Z,20.20
2022-10-08T15:36:19.090Z,20.20
2022-10-08T15:38:47.100Z,20.10
2022-10-08T15:41:17.208Z,20.10
2022-10-08T15:43:44.642Z,20.10
2022-10-08T15:46:14.556Z,20.10
2022-10-08T15:48:41.472Z,20.10
2022-10-08T15:51:08.321Z,20.00
2022-10-08T15:53:38.726Z,20.00
2022-10-08T15:56:06.118Z,20.00
2022-10-08T15:58:50.532Z,20.00
2022-10-08T16:01:20.303Z,20.00
2022-10-08T16:03:48.795Z,20.00
2022-10-08T16:06:22.513Z,20.00
2022-10-08T16:08:49.401Z,20.00
2022-10-08T16:11:46.650Z,20.00
2022-10-08T16:14:18.967Z,20.00
2022-10-08T16:16:46.610Z,19.90
2022-10-08T16:19:22.394Z,19.90
2022-10-08T16:21:51.024Z,19.90
2022-10-08T16:24:18.341Z,19.90
2022-10-08T16:26:47.088Z,19.90
2022-10-08T16:29:15.438Z,19.90
2022-10-08T16:31:43.880Z,19.90
2022-10-08T16:34:17.261Z,19.90
2022-10-08T16:36:46.005Z,19.90
2022-10-08T16:39:13.941Z,19.90
2022-10-08T16:41:41.026Z,19.90
2022-10-08T16:44:12.910Z,19.90
2022-10-08T16:46:43.081Z,19.90
2022-10-08T16:49:22.769Z,19.90
2022-10-08T16:51:53.335Z,19.90
2022-10-08T16:54:20.200Z,19.80
2022-10-08T16:56:47.381Z,19.80
2022-10-08T16:59:19.906Z,19.80
2022-10-08T17:01:49.160Z,19.70
2022-10-08T17:04:16.692Z,19.70
2022-10-08T17:06:43.915Z,19.70
2022-10-08T17:09:11.650Z,19.60
2022-10-08T17:11:39.367Z,19.60
2022-10-08T17:14:07.819Z,19.50
2022-10-08T17:16:35.785Z,19.50
2022-10-08T17:19:03.604Z,19.50
2022-10-08T17:21:31.618Z,19.40
2022-10-08T17:23:59.291Z,19.40
2022-10-08T17:26:27.765Z,19.30
2022-10-08T17:28:55.149Z,19.30
2022-10-08T17:31:24.930Z,19.30
2022-10-08T17:33:51.713Z,19.30
2022-10-08T17:36:21.342Z,19.20
2022-10-08T17:38:51.519Z,19.20
2022-10-08T17:41:26.938Z,19.20
2022-10-08T17:43:57.623Z,19.20
2022-10-08T17:46:26.997Z,19.20
2022-10-08T17:48:55.020Z,19.10
2022-10-08T17:51:27.043Z,19.10
2022-10-08T17:53:56.067Z,19.10
2022-10-08T17:56:23.935Z,19.10
2022-10-08T17:58:51.200Z,19.10
2022-10-08T18:01:23.728Z,19.10
2022-10-08T18:03:58.308Z,19.10
2022-10-08T18:06:25.965Z,19.10
2022-10-08T18:09:01.230Z,19.00
2022-10-08T18:11:29.810Z,19.00
2022-10-08T18:13:56.926Z,19.00
2022-10-08T18:16:25.340Z,19.00
2022-10-08T18:18:52.380Z,19.00
2022-10-08T18:21:20.122Z,19.00
2022-10-08T18:23:48.348Z,19.00
2022-10-08T18:26:20.908Z,19.00
2022-10-08T18:28:59.144Z,19.00
2022-10-08T18:31:28.345Z,18.90
2022-10-08T18:34:00.421Z,18.90
2022-10-08T18:36:29.457Z,18.90
2022-10-08T18:38:58.720Z,18.90
2022-10-08T18:41:28.470Z,18.80
2022-10-08T18:43:56.060Z,18.80
2022-10-08T18:46:23.700Z,18.80
2022-10-08T18:48:50.730Z,18.80
2022-10-08T18:51:21.365Z,18.70
2022-10-08T18:53:49.049Z,18.70
2022-10-08T18:56:22.909Z,18.70
2022-10-08T18:58:53.052Z,18.70
2022-10-08T19:01:26.276Z,18.70
2022-10-08T19:03:55.620Z,18.70
2022-10-08T19:06:25.056Z,18.60
2022-10-08T19:08:51.917Z,18.60
2022-10-08T19:11:21.379Z,18.60
2022-10-08T19:13:52.691Z,18.50
2022-10-08T19:16:19.671Z,18.50
2022-10-08T19:19:08.161Z,18.50
2022-10-08T19:21:38.573Z,18.50
2022-10-08T19:24:07.610Z,18.50
2022-10-08T19:26:34.595Z,18.40
2022-10-08T19:29:01.540Z,18.40
2022-10-08T19:31:31.232Z,18.40
2022-10-08T19:34:00.747Z,18.40
2022-10-08T19:36:29.848Z,18.40
2022-10-08T19:38:58.940Z,18.40
2022-10-08T19:41:26.941Z,18.40
2022-10-08T19:43:55.166Z,18.30
2022-10-08T19:46:22.606Z,18.30
2022-10-08T19:48:55.644Z,18.30
2022-10-08T19:51:23.405Z,18.30
2022-10-08T19:53:50.664Z,18.30
2022-10-08T19:56:18.680Z,18.30
2022-10-08T19:58:48.728Z,18.30
2022-10-08T20:01:31.542Z,18.20
2022-10-08T20:03:59.772Z,18.20
2022-10-08T20:06:29.218Z,18.20
2022-10-08T20:08:58.363Z,18.20
2022-10-08T20:11:26.287Z,18.20
2022-10-08T20:13:56.439Z,18.20
2022-10-08T20:16:26.262Z,18.20
2022-10-08T20:18:59.445Z,18.20
2022-10-08T20:21:31.031Z,18.20
2022-10-08T20:23:58.094Z,18.20
2022-10-08T20:26:29.718Z,18.10
2022-10-08T20:29:02.492Z,18.10
2022-10-08T20:31:32.179Z,18.00
2022-10-08T20:34:20.181Z,18.00
2022-10-08T20:36:48.246Z,18.00
2022-10-08T20:39:17.610Z,18.00
2022-10-08T20:41:44.853Z,18.00
2022-10-08T20:44:11.794Z,18.00
2022-10-08T20:46:38.848Z,18.00
2022-10-08T20:49:06.425Z,18.00
2022-10-08T20:51:33.784Z,17.90
2022-10-08T20:54:04.816Z,17.90
2022-10-08T20:56:38.460Z,17.90
2022-10-08T20:59:07.010Z,17.90
2022-10-08T21:01:36.260Z,17.90
2022-10-08T21:04:04.757Z,17.90
2022-10-08T21:06:36.912Z,17.90
2022-10-08T21:09:03.831Z,17.90
2022-10-08T21:11:31.083Z,17.90
2022-10-08T21:14:01.478Z,17.80
2022-10-08T21:16:31.711Z,17.80
2022-10-08T21:19:02.111Z,17.80
2022-10-08T21:21:30.990Z,17.80
2022-10-08T21:23:58.591Z,17.70
2022-10-08T21:26:28.198Z,17.70
2022-10-08T21:28:57.054Z,17.70
2022-10-08T21:31:24.623Z,17.70
2022-10-08T21:33:53.196Z,17.70
2022-10-08T21:36:40.462Z,17.60
2022-10-08T21:39:08.716Z,17.60
2022-10-08T21:41:37.184Z,17.60
2022-10-08T21:44:06.515Z,17.60
2022-10-08T21:46:35.864Z,17.60
2022-10-08T21:49:06.073Z,17.60
2022-10-08T21:51:34.088Z,17.60
2022-10-08T21:54:02.576Z,17.60
2022-10-08T21:56:31.579Z,17.50
2022-10-08T21:59:01.388Z,17.60
2022-10-08T22:01:49.379Z,17.50
2022-10-08T22:04:18.942Z,17.50
2022-10-08T22:06:51.089Z,17.50
2022-10-08T22:09:22.974Z,17.50
2022-10-08T22:11:50.814Z,17.50
2022-10-08T22:14:18.461Z,17.40
2022-10-08T22:16:45.527Z,17.40
2022-10-08T22:19:12.690Z,17.40
2022-10-08T22:21:40.045Z,17.40
2022-10-08T22:24:07.266Z,17.40
2022-10-08T22:26:37.113Z,17.30
2022-10-08T22:29:05.407Z,17.30
2022-10-08T22:31:32.588Z,17.30
2022-10-08T22:33:59.644Z,17.20
2022-10-08T22:36:29.388Z,17.10
2022-10-08T22:38:57.164Z,17.00
2022-10-08T22:41:26.048Z,16.90
2022-10-08T22:43:53.327Z,16.90
2022-10-08T22:46:23.124Z,16.90
2022-10-08T22:48:50.022Z,16.90
2022-10-08T22:51:19.784Z,16.90
2022-10-08T22:53:47.611Z,16.80
2022-10-08T22:56:17.506Z,16.80
2022-10-08T22:58:45.775Z,16.80
2022-10-08T23:01:16.338Z,16.80
2022-10-08T23:03:43.740Z,16.80
2022-10-08T23:06:23.796Z,16.80
2022-10-08T23:08:59.558Z,16.80
2022-10-08T23:11:27.630Z,16.70
2022-10-08T23:13:56.369Z,16.70
2022-10-08T23:16:24.735Z,16.70
2022-10-08T23:18:54.665Z,16.70
2022-10-08T23:21:22.000Z,16.70
2022-10-08T23:23:49.501Z,16.70
2022-10-08T23:26:17.919Z,16.60
2022-10-08T23:28:45.547Z,16.60
2022-10-08T23:31:17.927Z,16.60
2022-10-08T23:33:47.324Z,16.60
2022-10-08T23:36:17.859Z,16.60
2022-10-08T23:38:45.166Z,16.50
2022-10-08T23:41:12.693Z,16.50
2022-10-08T23:43:42.474Z,16.50
2022-10-08T23:46:11.466Z,16.50
2022-10-08T23:48:38.946Z,16.50
2022-10-08T23:51:06.789Z,16.50
2022-10-08T23:53:34.577Z,16.50
2022-10-08T23:56:01.905Z,16.50
2022-10-08T23:58:28.817Z,16.50
